Time;durP1;ratioP1;P1;durP2;ratioP2;P2;SDS_P1;SDS_P2;PMS_P1;PMS_P2;Temp;Humidity;BMP_temperature;BMP_pressure;BME280_temperature;BME280_humidity;BME280_pressure;Samples;Min_cycle;Max_cycle;Signal;HPM_P1;HPM_P2
2022/12/09 00:00:11;;;;;;;24.48;15.05;;;4.90;99.90;;;;;;4191515;28;20494;-67
2022/12/09 00:02:11;;;;;;;25.57;15.97;;;4.80;99.90;;;;;;4188367;28;20098;-64
2022/12/09 00:04:12;;;;;;;31.00;17.83;;;4.80;99.90;;;;;;4175312;28;20033;-64
2022/12/09 00:06:21;;;;;;;26.23;16.73;;;4.80;99.90;;;;;;4174570;28;20060;-64
2022/12/09 00:08:22;;;;;;;33.35;19.45;;;4.80;99.90;;;;;;4190536;28;20083;-64
2022/12/09 00:10:22;;;;;;;26.63;17.88;;;4.80;99.90;;;;;;4185036;28;20216;-64
2022/12/09 00:12:23;;;;;;;30.60;17.85;;;4.80;99.90;;;;;;4192234;28;20033;-64
2022/12/09 00:14:23;;;;;;;28.55;18.60;;;4.80;99.90;;;;;;4186561;28;20059;-64
2022/12/09 00:16:25;;;;;;;25.40;16.98;;;4.80;99.90;;;;;;4188246;28;20071;-64
2022/12/09 00:18:25;;;;;;;31.45;18.75;;;4.90;99.90;;;;;;4181990;28;20037;-65
2022/12/09 00:20:26;;;;;;;31.30;19.20;;;4.90;99.90;;;;;;4177834;28;20056;-65
2022/12/09 00:22:27;;;;;;;26.92;17.50;;;4.90;99.90;;;;;;4183450;28;20178;-64
2022/12/09 00:24:27;;;;;;;28.02;17.05;;;4.90;99.90;;;;;;4178306;28;20045;-64
2022/12/09 00:26:28;;;;;;;28.95;17.08;;;4.90;99.90;;;;;;4188940;28;20040;-65
2022/12/09 00:28:28;;;;;;;25.30;16.42;;;4.90;99.90;;;;;;4190454;28;20046;-65
2022/12/09 00:30:29;;;;;;;24.58;16.40;;;4.90;99.90;;;;;;4189070;28;20441;-65
2022/12/09 00:32:30;;;;;;;27.13;17.30;;;5.00;99.90;;;;;;4186456;28;20045;-65
2022/12/09 00:34:30;;;;;;;26.98;17.70;;;5.00;99.90;;;;;;4187692;28;20057;-64
2022/12/09 00:36:31;;;;;;;30.00;18.63;;;5.00;99.90;;;;;;4184693;28;20366;-65
2022/12/09 00:38:32;;;;;;;27.27;17.38;;;5.00;99.90;;;;;;4188105;28;20037;-64
2022/12/09 00:40:33;;;;;;;26.30;16.67;;;5.00;99.90;;;;;;4185828;28;20043;-64
2022/12/09 00:42:33;;;;;;;26.75;17.20;;;5.00;99.90;;;;;;4189658;28;20037;-64
2022/12/09 00:44:34;;;;;;;26.17;16.85;;;5.10;99.90;;;;;;4194197;28;20041;-64
2022/12/09 00:46:34;;;;;;;24.88;17.23;;;5.00;99.90;;;;;;4182081;28;20033;-64
2022/12/09 00:48:37;;;;;;;27.15;17.80;;;5.10;99.90;;;;;;4192250;28;20120;-65
2022/12/09 00:50:37;;;;;;;24.98;17.02;;;5.10;99.90;;;;;;4188934;28;20060;-64
2022/12/09 00:52:38;;;;;;;27.98;16.73;;;5.10;99.90;;;;;;4189743;28;20033;-64
2022/12/09 00:54:38;;;;;;;26.83;16.95;;;5.00;99.90;;;;;;4190916;28;20105;-64
2022/12/09 00:56:39;;;;;;;27.27;16.83;;;5.10;99.90;;;;;;4176475;28;20033;-64
2022/12/09 00:58:40;;;;;;;27.55;17.83;;;5.10;99.90;;;;;;4185065;28;20147;-64
2022/12/09 01:00:40;;;;;;;30.08;17.70;;;5.10;99.90;;;;;;4192807;28;20058;-64
2022/12/09 01:02:41;;;;;;;28.25;17.92;;;5.00;99.90;;;;;;4188508;28;20065;-64
2022/12/09 01:04:41;;;;;;;28.15;16.95;;;5.00;99.90;;;;;;4182150;28;20130;-64
2022/12/09 01:06:42;;;;;;;25.33;16.98;;;5.00;99.90;;;;;;4190457;28;20036;-64
2022/12/09 01:08:43;;;;;;;25.55;16.25;;;5.00;99.90;;;;;;4193154;28;20032;-64
2022/12/09 01:10:44;;;;;;;27.08;16.25;;;5.00;99.90;;;;;;4190232;28;20194;-64
2022/12/09 01:12:44;;;;;;;23.45;14.88;;;5.00;99.90;;;;;;4176540;28;20493;-64
2022/12/09 01:14:45;;;;;;;23.75;15.20;;;5.00;99.90;;;;;;4180600;28;20045;-64
2022/12/09 01:16:45;;;;;;;28.88;16.80;;;5.00;99.90;;;;;;4181905;28;20041;-64
2022/12/09 01:18:46;;;;;;;26.60;16.42;;;5.00;99.90;;;;;;4179058;28;20040;-64
2022/12/09 01:20:55;;;;;;;26.83;16.17;;;5.00;99.90;;;;;;4192635;28;20108;-64
2022/12/09 01:22:56;;;;;;;30.15;15.50;;;5.00;99.90;;;;;;4192702;28;20025;-65
2022/12/09 01:24:57;;;;;;;24.25;15.50;;;5.00;99.90;;;;;;4191995;28;20047;-65
2022/12/09 01:26:57;;;;;;;27.90;17.08;;;4.90;99.90;;;;;;4186943;28;20035;-64
2022/12/09 01:28:58;;;;;;;22.50;15.38;;;4.90;99.90;;;;;;4188948;28;20036;-65
2022/12/09 01:31:11;;;;;;;28.35;16.45;;;4.90;99.90;;;;;;4181060;28;20041;-65
2022/12/09 01:33:12;;;;;;;25.55;16.50;;;4.90;99.90;;;;;;4175449;28;20037;-64
2022/12/09 01:35:12;;;;;;;28.60;16.98;;;4.90;99.90;;;;;;4171303;28;20209;-64
2022/12/09 01:37:13;;;;;;;30.48;18.73;;;4.90;99.90;;;;;;4208439;28;20411;-64
2022/12/09 01:39:15;;;;;;;27.73;17.33;;;4.90;99.90;;;;;;4186919;28;20040;-64
2022/12/09 01:41:17;;;;;;;25.90;17.30;;;4.80;99.90;;;;;;4190941;28;20048;-64
2022/12/09 01:43:18;;;;;;;32.05;18.58;;;4.80;99.90;;;;;;4191364;28;20029;-64
2022/12/09 01:45:19;;;;;;;25.42;16.98;;;4.90;99.90;;;;;;4186400;28;20151;-64
2022/12/09 01:47:21;;;;;;;31.95;18.90;;;4.80;99.90;;;;;;4187297;28;20555;-64
2022/12/09 01:49:33;;;;;;;27.17;16.70;;;4.80;99.90;;;;;;4186610;28;20043;-64
2022/12/09 01:51:35;;;;;;;25.85;17.45;;;4.80;99.90;;;;;;4188589;28;20036;-64
2022/12/09 01:53:38;;;;;;;26.08;15.90;;;4.80;99.90;;;;;;4190600;28;20049;-64
2022/12/09 01:55:40;;;;;;;26.70;16.75;;;4.80;99.90;;;;;;4190992;28;20064;-64
2022/12/09 01:57:43;;;;;;;28.50;17.87;;;4.80;99.90;;;;;;4183738;28;20159;-64
2022/12/09 01:59:44;;;;;;;;;;;4.80;99.90;;;;;;4181894;28;20359;-64
2022/12/09 02:01:48;;;;;;;32.42;17.98;;;4.70;99.90;;;;;;4183393;28;19909;-64
2022/12/09 02:03:49;;;;;;;27.15;17.85;;;4.70;99.90;;;;;;4176253;28;20091;-64
2022/12/09 02:05:50;;;;;;;28.48;18.33;;;4.70;99.90;;;;;;4182249;28;20041;-64
2022/12/09 02:07:51;;;;;;;31.83;19.55;;;4.70;99.90;;;;;;4179373;28;20060;-64
2022/12/09 02:09:52;;;;;;;29.23;18.05;;;4.70;99.90;;;;;;4178710;28;20033;-64
2022/12/09 02:12:15;;;;;;;34.72;21.05;;;4.70;99.90;;;;;;4187013;28;20029;-64
2022/12/09 02:14:23;;;;;;;;;;;4.60;99.90;;;;;;4191849;28;20057;-64
2022/12/09 02:16:27;;;;;;;29.65;17.23;;;4.60;99.90;;;;;;4190209;28;19909;-64
2022/12/09 02:18:49;;;;;;;28.23;17.50;;;4.60;99.90;;;;;;4191038;28;20111;-65
2022/12/09 02:21:00;;;;;;;28.27;17.42;;;4.60;99.90;;;;;;4185408;28;20514;-64
2022/12/09 02:23:27;;;;;;;27.17;16.48;;;4.60;99.90;;;;;;4182525;28;20060;-64
2022/12/09 02:25:43;;;;;;;23.75;16.15;;;4.60;99.90;;;;;;4160460;28;20110;-65
2022/12/09 02:28:11;;;;;;;27.83;17.10;;;4.60;99.90;;;;;;4175922;28;20047;-64
2022/12/09 02:30:20;;;;;;;26.95;17.60;;;4.70;99.90;;;;;;4179904;28;20476;-65
2022/12/09 02:32:44;;;;;;;25.40;15.73;;;4.70;99.90;;;;;;4181893;28;20437;-64
2022/12/09 02:34:57;;;;;;;27.80;18.02;;;4.70;99.90;;;;;;4182072;28;20056;-64
2022/12/09 02:37:12;;;;;;;28.15;17.83;;;4.70;99.90;;;;;;4188129;28;20047;-65
2022/12/09 02:39:13;;;;;;;27.08;16.63;;;4.70;99.90;;;;;;4189500;28;20123;-64
2022/12/09 02:41:23;;;;;;;28.65;17.52;;;4.70;99.90;;;;;;4192892;28;20041;-64
2022/12/09 02:43:30;;;;;;;27.52;16.75;;;4.80;99.90;;;;;;4192642;28;20059;-64
2022/12/09 02:45:31;;;;;;;26.67;16.40;;;4.80;99.90;;;;;;4189232;28;20090;-65
2022/12/09 02:47:37;;;;;;;23.38;15.63;;;4.80;99.90;;;;;;4182524;28;20037;-64
2022/12/09 02:49:40;;;;;;;25.90;15.82;;;4.80;99.90;;;;;;4192719;28;20060;-64
2022/12/09 02:51:42;;;;;;;31.10;17.95;;;4.80;99.90;;;;;;4190870;28;20040;-64
2022/12/09 02:53:47;;;;;;;30.33;18.08;;;4.80;99.90;;;;;;4190275;28;20153;-64
2022/12/09 02:55:49;;;;;;;29.05;17.52;;;4.80;99.90;;;;;;4182025;28;20047;-64
2022/12/09 02:57:56;;;;;;;33.08;19.23;;;4.80;99.90;;;;;;4186151;28;20036;-64
2022/12/09 02:59:57;;;;;;;30.08;17.80;;;4.80;99.90;;;;;;4190463;28;20076;-64
2022/12/09 03:02:21;;;;;;;31.70;19.05;;;4.80;99.90;;;;;;4191456;28;20053;-66
2022/12/09 03:04:25;;;;;;;28.35;17.48;;;4.70;99.90;;;;;;4190616;28;20044;-64
2022/12/09 03:06:37;;;;;;;28.20;17.77;;;4.70;99.90;;;;;;4187336;28;20568;-64
2022/12/09 03:08:48;;;;;;;29.15;17.50;;;4.60;99.90;;;;;;4176970;28;20075;-64
2022/12/09 03:11:07;;;;;;;25.27;16.27;;;4.60;99.90;;;;;;4186802;28;20051;-64
2022/12/09 03:13:26;;;;;;;27.67;16.23;;;4.60;99.90;;;;;;4178634;28;20052;-64
2022/12/09 03:15:32;;;;;;;23.98;15.30;;;4.60;99.90;;;;;;4171317;28;20238;-64
2022/12/09 03:17:35;;;;;;;27.42;16.60;;;4.60;99.90;;;;;;4171072;28;20376;-64
2022/12/09 03:19:53;;;;;;;27.48;17.17;;;4.60;99.90;;;;;;4174093;28;20029;-64
2022/12/09 03:21:59;;;;;;;26.10;15.32;;;4.70;99.90;;;;;;4190075;28;20466;-64
2022/12/09 03:24:01;;;;;;;25.20;15.68;;;4.70;99.90;;;;;;4221273;28;20536;-65
2022/12/09 03:26:04;;;;;;;29.58;17.55;;;4.70;99.90;;;;;;4173710;28;20037;-64
2022/12/09 03:28:14;;;;;;;30.23;16.60;;;4.70;99.90;;;;;;4178418;28;20483;-64
2022/12/09 03:30:16;;;;;;;26.83;16.23;;;4.70;99.90;;;;;;4173126;28;20025;-64
2022/12/09 03:32:19;;;;;;;26.45;16.27;;;4.80;99.90;;;;;;4174906;28;20033;-64
2022/12/09 03:34:25;;;;;;;27.10;16.98;;;4.80;99.90;;;;;;4179802;28;20041;-64
2022/12/09 03:36:30;;;;;;;25.92;17.05;;;4.80;99.90;;;;;;4170434;28;20124;-64
2022/12/09 03:38:35;;;;;;;23.13;15.15;;;4.80;99.90;;;;;;4173457;28;20466;-64
2022/12/09 03:40:37;;;;;;;25.23;15.93;;;4.80;99.90;;;;;;4175451;28;20029;-64
2022/12/09 03:42:44;;;;;;;25.15;16.38;;;4.80;99.90;;;;;;4177785;28;20094;-64
2022/12/09 03:45:08;;;;;;;27.63;16.40;;;4.80;99.90;;;;;;4177659;28;20041;-65
2022/12/09 03:47:09;;;;;;;29.25;17.17;;;4.80;99.90;;;;;;4186487;28;20109;-64
2022/12/09 03:49:11;;;;;;;25.55;16.58;;;4.80;99.90;;;;;;4173446;28;20038;-64
2022/12/09 03:51:15;;;;;;;32.75;16.73;;;4.80;99.90;;;;;;4169094;28;20064;-64
2022/12/09 03:53:24;;;;;;;23.17;16.00;;;4.80;99.90;;;;;;4173032;28;20030;-64
2022/12/09 03:55:36;;;;;;;25.83;15.82;;;4.80;99.90;;;;;;4187147;28;20055;-64
2022/12/09 03:57:41;;;;;;;27.92;16.20;;;4.80;99.90;;;;;;4188948;28;20593;-64
2022/12/09 03:59:45;;;;;;;23.63;14.93;;;4.80;99.90;;;;;;4188564;28;20483;-64
2022/12/09 04:01:46;;;;;;;24.42;15.75;;;4.80;99.90;;;;;;4179644;28;20064;-64
2022/12/09 04:03:48;;;;;;;28.80;16.73;;;4.80;99.90;;;;;;4178693;28;20033;-64
2022/12/09 04:05:49;;;;;;;24.63;16.20;;;4.80;99.90;;;;;;4173388;28;20041;-64
2022/12/09 04:07:50;;;;;;;26.00;16.85;;;4.80;99.90;;;;;;4182546;28;20593;-64
2022/12/09 04:09:50;;;;;;;26.75;16.58;;;4.80;99.90;;;;;;4176455;28;20044;-64
2022/12/09 04:11:51;;;;;;;25.83;16.08;;;4.80;99.90;;;;;;4178836;28;20044;-65
2022/12/09 04:13:52;;;;;;;23.75;15.32;;;4.80;99.90;;;;;;4182635;28;20108;-64
2022/12/09 04:15:52;;;;;;;25.77;17.08;;;4.80;99.90;;;;;;4181073;28;20037;-64
2022/12/09 04:17:53;;;;;;;27.67;16.55;;;4.80;99.90;;;;;;4183798;28;20029;-64
2022/12/09 04:19:53;;;;;;;26.73;16.38;;;4.70;99.90;;;;;;4194322;28;20033;-64
2022/12/09 04:21:54;;;;;;;27.85;16.27;;;4.80;99.90;;;;;;4192518;28;20109;-64
2022/12/09 04:23:54;;;;;;;26.30;16.92;;;4.80;99.90;;;;;;4193872;28;20029;-64
2022/12/09 04:25:55;;;;;;;24.42;16.02;;;4.80;99.90;;;;;;4191618;28;20056;-64
2022/12/09 04:27:56;;;;;;;25.27;15.45;;;4.80;99.90;;;;;;4192768;28;20351;-64
2022/12/09 04:29:56;;;;;;;24.05;15.20;;;4.70;99.90;;;;;;4194068;28;20387;-64
2022/12/09 04:31:57;;;;;;;24.02;15.10;;;4.80;99.90;;;;;;4189670;28;20032;-64
2022/12/09 04:33:59;;;;;;;24.50;16.08;;;4.80;99.90;;;;;;4194025;28;20051;-64
2022/12/09 04:36:12;;;;;;;24.13;15.18;;;4.80;99.90;;;;;;4190977;28;20119;-64
2022/12/09 04:38:13;;;;;;;24.48;15.18;;;4.80;99.90;;;;;;4194380;28;20047;-64
2022/12/09 04:40:13;;;;;;;33.08;16.63;;;4.80;99.90;;;;;;4194269;28;20037;-64
2022/12/09 04:42:14;;;;;;;27.27;17.33;;;4.80;99.90;;;;;;4194460;28;20044;-64
2022/12/09 04:44:14;;;;;;;25.08;16.20;;;4.80;99.90;;;;;;4189858;28;20100;-64
2022/12/09 04:46:16;;;;;;;27.80;16.20;;;4.80;99.90;;;;;;4185737;28;20043;-64
2022/12/09 04:48:17;;;;;;;29.25;16.85;;;4.80;99.90;;;;;;4180835;28;20444;-64
2022/12/09 04:50:17;;;;;;;25.20;15.60;;;4.80;99.90;;;;;;4180784;28;20061;-64
2022/12/09 04:52:18;;;;;;;24.25;15.02;;;4.90;99.90;;;;;;4184446;28;20430;-64
2022/12/09 04:54:19;;;;;;;25.58;15.82;;;4.90;99.90;;;;;;4187766;28;20590;-64
2022/12/09 04:56:20;;;;;;;23.33;15.60;;;4.90;99.90;;;;;;4191141;28;20043;-64
2022/12/09 04:58:21;;;;;;;26.75;15.90;;;4.90;99.90;;;;;;4192246;28;20041;-64
2022/12/09 05:00:21;;;;;;;24.10;15.75;;;4.90;99.90;;;;;;4187157;28;20059;-64
2022/12/09 05:02:22;;;;;;;25.70;16.00;;;4.90;99.90;;;;;;4192127;28;20086;-64
2022/12/09 05:04:22;;;;;;;26.05;15.93;;;4.90;99.90;;;;;;4193330;28;20028;-64
2022/12/09 05:06:24;;;;;;;26.25;16.30;;;4.90;99.90;;;;;;4188522;28;20040;-64
2022/12/09 05:08:24;;;;;;;24.58;15.05;;;4.90;99.90;;;;;;4193414;28;20045;-64
2022/12/09 05:10:25;;;;;;;27.73;17.30;;;4.80;99.90;;;;;;4177678;28;20104;-64
2022/12/09 05:12:25;;;;;;;24.83;16.10;;;4.90;99.90;;;;;;4170619;28;20033;-64
2022/12/09 05:14:26;;;;;;;22.77;14.60;;;4.80;99.90;;;;;;4176083;28;20044;-64
2022/12/09 05:16:27;;;;;;;25.52;14.52;;;4.80;99.90;;;;;;4173288;28;20424;-64
2022/12/09 05:18:27;;;;;;;21.13;14.27;;;4.80;99.90;;;;;;4178071;28;20033;-64
2022/12/09 05:20:28;;;;;;;20.42;12.85;;;4.80;99.90;;;;;;4177871;28;20463;-64
2022/12/09 05:22:29;;;;;;;20.23;12.68;;;4.80;99.90;;;;;;4173547;28;20408;-64
2022/12/09 05:24:30;;;;;;;25.30;13.57;;;4.80;99.90;;;;;;4190723;28;20037;-64
2022/12/09 05:26:31;;;;;;;17.92;11.88;;;4.80;99.90;;;;;;4188563;28;20464;-64
2022/12/09 05:28:32;;;;;;;18.33;11.77;;;4.70;99.90;;;;;;4191697;28;20040;-65
2022/12/09 05:30:33;;;;;;;20.10;12.32;;;4.70;99.90;;;;;;4189084;28;20033;-64
2022/12/09 05:32:33;;;;;;;19.77;13.27;;;4.70;99.90;;;;;;4189363;28;20036;-64
2022/12/09 05:34:34;;;;;;;21.35;12.07;;;4.70;99.90;;;;;;4186668;28;20350;-64
2022/12/09 05:36:34;;;;;;;22.38;13.32;;;4.70;99.90;;;;;;4188520;28;20115;-64
2022/12/09 05:38:35;;;;;;;17.95;12.00;;;4.70;99.90;;;;;;4185078;28;20662;-64
2022/12/09 05:40:36;;;;;;;18.25;11.85;;;4.70;99.90;;;;;;4189737;28;20552;-64
2022/12/09 05:42:37;;;;;;;16.35;11.65;;;4.70;99.90;;;;;;4186316;28;20032;-64
2022/12/09 05:44:37;;;;;;;18.17;11.23;;;4.70;99.90;;;;;;4185972;28;20033;-64
2022/12/09 05:46:38;;;;;;;19.05;11.88;;;4.70;99.90;;;;;;4175767;28;20048;-64
2022/12/09 05:48:39;;;;;;;21.33;13.32;;;4.80;99.90;;;;;;4181979;28;20033;-64
2022/12/09 05:50:39;;;;;;;22.73;12.73;;;4.80;99.90;;;;;;4188421;28;20095;-64
2022/12/09 05:52:40;;;;;;;20.52;12.40;;;4.80;99.90;;;;;;4177910;28;20041;-64
2022/12/09 05:54:40;;;;;;;20.52;12.35;;;4.80;99.90;;;;;;4185300;28;20076;-64
2022/12/09 05:56:41;;;;;;;18.17;11.65;;;4.80;99.90;;;;;;4190422;28;20127;-64
2022/12/09 05:58:42;;;;;;;18.42;11.65;;;4.80;99.90;;;;;;4192807;28;20033;-64
2022/12/09 06:00:42;;;;;;;17.15;11.30;;;4.80;99.90;;;;;;4187203;28;20055;-64
2022/12/09 06:02:43;;;;;;;17.23;12.30;;;4.90;99.90;;;;;;4187438;28;20166;-64
2022/12/09 06:04:43;;;;;;;20.10;12.38;;;4.90;99.90;;;;;;4189381;28;20072;-64
2022/12/09 06:06:44;;;;;;;16.33;11.93;;;4.90;99.90;;;;;;4181486;28;20041;-64
2022/12/09 06:08:45;;;;;;;17.45;11.32;;;4.80;99.90;;;;;;4177468;28;20142;-64
2022/12/09 06:10:46;;;;;;;16.35;11.82;;;4.90;99.90;;;;;;4190449;28;20098;-64
2022/12/09 06:12:46;;;;;;;21.70;13.43;;;4.80;99.90;;;;;;4192243;28;20487;-64
2022/12/09 06:14:47;;;;;;;22.17;12.95;;;4.80;99.90;;;;;;4188404;28;20044;-64
2022/12/09 06:16:47;;;;;;;21.10;12.50;;;4.80;99.90;;;;;;4189727;28;20479;-64
2022/12/09 06:18:48;;;;;;;20.58;12.70;;;4.80;99.90;;;;;;4187473;28;20455;-64
2022/12/09 06:20:48;;;;;;;20.00;12.13;;;4.80;99.90;;;;;;4185332;28;20032;-64
2022/12/09 06:22:49;;;;;;;20.58;12.60;;;4.80;99.90;;;;;;4181968;28;20094;-64
2022/12/09 06:24:50;;;;;;;18.60;11.90;;;4.90;99.90;;;;;;4186628;28;20036;-64
2022/12/09 06:26:52;;;;;;;17.73;11.70;;;4.80;99.90;;;;;;4186044;28;20083;-64
2022/12/09 06:28:53;;;;;;;;;;;4.90;99.90;;;;;;4188076;28;20040;-64
2022/12/09 06:30:56;;;;;;;20.25;12.15;;;4.90;99.90;;;;;;4186519;28;20300;-64
2022/12/09 06:32:56;;;;;;;21.45;12.90;;;4.90;99.90;;;;;;4184473;28;20051;-64
2022/12/09 06:34:57;;;;;;;21.38;13.75;;;4.90;99.90;;;;;;4180115;28;20661;-64
2022/12/09 06:36:57;;;;;;;23.10;13.52;;;4.90;99.90;;;;;;4187024;28;20029;-64
2022/12/09 06:39:00;;;;;;;20.80;13.10;;;4.80;99.90;;;;;;4188096;28;20040;-64
2022/12/09 06:41:07;;;;;;;19.75;12.48;;;4.80;99.90;;;;;;4187588;28;20548;-64
2022/12/09 06:43:08;;;;;;;21.45;11.77;;;4.70;99.90;;;;;;4170732;28;20494;-64
2022/12/09 06:45:09;;;;;;;19.88;12.00;;;4.70;99.90;;;;;;4185828;28;20118;-64
2022/12/09 06:47:10;;;;;;;15.30;10.93;;;4.70;99.90;;;;;;4188481;28;20494;-64
2022/12/09 06:49:10;;;;;;;19.70;10.32;;;4.70;99.90;;;;;;4190457;28;20949;-64
2022/12/09 06:51:11;;;;;;;15.55;9.40;;;4.70;99.90;;;;;;4188094;28;20109;-64
2022/12/09 06:53:12;;;;;;;20.05;10.70;;;4.70;99.90;;;;;;4187239;28;20050;-64
2022/12/09 06:55:12;;;;;;;15.27;10.02;;;4.70;99.90;;;;;;4187747;28;20055;-64
2022/12/09 06:57:13;;;;;;;17.95;10.60;;;4.70;99.90;;;;;;4186776;28;20483;-64
2022/12/09 06:59:14;;;;;;;14.35;9.82;;;4.70;99.90;;;;;;4189101;28;20983;-64
2022/12/09 07:01:17;;;;;;;18.77;10.57;;;4.70;99.90;;;;;;4187337;28;20056;-64
2022/12/09 07:03:18;;;;;;;16.02;10.18;;;4.70;99.90;;;;;;4188390;28;20123;-65
2022/12/09 07:05:18;;;;;;;14.68;9.45;;;4.70;99.90;;;;;;4188160;28;20491;-65
2022/12/09 07:07:19;;;;;;;14.88;9.05;;;4.70;99.90;;;;;;4187462;28;20457;-64
2022/12/09 07:09:20;;;;;;;14.10;8.55;;;4.70;99.90;;;;;;4189744;28;20787;-65
2022/12/09 07:11:21;;;;;;;13.82;9.10;;;4.70;99.90;;;;;;4187261;28;20752;-64
2022/12/09 07:13:21;;;;;;;15.43;9.45;;;4.70;99.90;;;;;;4183931;28;20053;-65
2022/12/09 07:15:22;;;;;;;15.15;9.05;;;4.70;99.90;;;;;;4185102;28;20078;-65
2022/12/09 07:17:23;;;;;;;15.27;10.07;;;4.70;99.90;;;;;;4188237;28;20100;-64
2022/12/09 07:19:23;;;;;;;16.02;9.82;;;4.70;99.90;;;;;;4182577;28;20041;-65
2022/12/09 07:21:24;;;;;;;16.67;10.38;;;4.70;99.90;;;;;;4179484;28;20128;-64
2022/12/09 07:23:24;;;;;;;18.58;10.13;;;4.70;99.90;;;;;;4177347;28;20036;-65
2022/12/09 07:25:25;;;;;;;15.13;9.68;;;4.70;99.90;;;;;;4177774;28;20079;-65
2022/12/09 07:27:26;;;;;;;18.15;9.45;;;4.70;99.90;;;;;;4188158;28;20045;-65
2022/12/09 07:29:26;;;;;;;20.08;10.48;;;4.80;99.90;;;;;;4186251;28;20055;-65
2022/12/09 07:31:28;;;;;;;15.27;10.55;;;4.80;99.90;;;;;;4187599;28;20036;-65
2022/12/09 07:33:29;;;;;;;15.98;10.90;;;4.80;99.90;;;;;;4188996;28;20116;-65
2022/12/09 07:35:29;;;;;;;17.95;10.68;;;4.80;99.90;;;;;;4187926;28;20045;-65
2022/12/09 07:37:30;;;;;;;20.02;12.70;;;4.80;99.90;;;;;;4187833;28;20040;-65
2022/12/09 07:39:30;;;;;;;20.33;12.20;;;4.80;99.90;;;;;;4188718;28;20371;-65
2022/12/09 07:41:31;;;;;;;25.27;12.90;;;4.90;99.90;;;;;;4188773;28;20037;-65
2022/12/09 07:43:35;;;;;;;18.23;12.32;;;4.90;99.90;;;;;;4187892;28;20040;-65
2022/12/09 07:45:36;;;;;;;23.70;14.35;;;4.90;99.90;;;;;;4186214;28;20052;-65
2022/12/09 07:47:37;;;;;;;22.35;13.15;;;4.90;99.90;;;;;;4190203;28;20593;-65
2022/12/09 07:49:37;;;;;;;17.73;11.85;;;4.90;99.90;;;;;;4187983;28;20873;-65
2022/12/09 07:51:38;;;;;;;21.33;13.55;;;4.90;99.90;;;;;;4190411;28;20089;-65
2022/12/09 07:53:39;;;;;;;22.42;14.30;;;4.90;99.90;;;;;;4191711;28;20029;-65
2022/12/09 07:55:39;;;;;;;22.60;14.18;;;4.90;99.90;;;;;;4190195;28;20037;-65
2022/12/09 07:57:41;;;;;;;23.70;14.68;;;4.90;99.90;;;;;;4188921;28;20040;-65
2022/12/09 07:59:42;;;;;;;24.58;14.32;;;4.90;99.90;;;;;;4188001;28;20463;-65
2022/12/09 08:01:43;;;;;;;23.15;14.73;;;4.90;99.90;;;;;;4189581;28;20040;-65
2022/12/09 08:03:44;;;;;;;20.38;13.43;;;4.90;99.90;;;;;;4191445;28;20041;-65
2022/12/09 08:05:49;;;;;;;26.35;15.30;;;4.90;99.90;;;;;;4189222;28;20035;-65
2022/12/09 08:07:49;;;;;;;24.83;14.25;;;4.90;99.90;;;;;;4190725;28;20051;-65
2022/12/09 08:09:52;;;;;;;23.35;14.25;;;4.90;99.90;;;;;;4191317;28;20399;-65
2022/12/09 08:11:52;;;;;;;23.65;14.77;;;4.90;99.90;;;;;;4189770;28;20036;-65
2022/12/09 08:13:56;;;;;;;22.63;14.43;;;4.90;99.90;;;;;;4192248;28;20045;-65
2022/12/09 08:16:04;;;;;;;25.08;15.02;;;4.90;99.90;;;;;;4190524;28;20072;-65
2022/12/09 08:18:05;;;;;;;26.40;15.00;;;4.90;99.90;;;;;;4190435;28;20033;-65
2022/12/09 08:20:06;;;;;;;23.42;14.90;;;4.90;99.90;;;;;;4191714;28;20087;-66
2022/12/09 08:22:07;;;;;;;23.55;14.52;;;4.90;99.90;;;;;;4192150;28;20105;-65
2022/12/09 08:24:10;;;;;;;23.50;14.48;;;4.90;99.90;;;;;;4191678;28;20028;-65
2022/12/09 08:26:12;;;;;;;24.70;15.32;;;4.90;99.90;;;;;;4190967;28;20033;-65
2022/12/09 08:28:13;;;;;;;24.38;15.45;;;4.90;99.90;;;;;;4190235;28;20480;-65
2022/12/09 08:30:13;;;;;;;23.75;14.73;;;5.00;99.90;;;;;;4191206;28;20120;-65
2022/12/09 08:32:15;;;;;;;27.77;16.02;;;5.00;99.90;;;;;;4191741;28;20090;-65
2022/12/09 08:34:16;;;;;;;25.60;16.00;;;5.00;99.90;;;;;;4191961;28;20106;-65
2022/12/09 08:36:19;;;;;;;26.73;15.40;;;5.00;99.90;;;;;;4188658;28;20045;-65
2022/12/09 08:38:20;;;;;;;27.88;15.73;;;5.00;99.90;;;;;;4188916;28;20111;-65
2022/12/09 08:40:20;;;;;;;24.90;16.30;;;5.00;99.90;;;;;;4191004;28;20072;-65
2022/12/09 08:42:21;;;;;;;25.02;16.42;;;5.00;99.90;;;;;;4191380;28;20067;-65
2022/12/09 08:44:22;;;;;;;25.95;16.85;;;5.00;99.90;;;;;;4191394;28;20127;-65
2022/12/09 08:46:23;;;;;;;26.38;16.23;;;5.00;99.90;;;;;;4186513;28;20040;-64
2022/12/09 08:48:23;;;;;;;25.70;15.98;;;5.00;99.90;;;;;;4190041;28;20082;-65
2022/12/09 08:50:24;;;;;;;30.10;17.00;;;5.00;99.90;;;;;;4190384;28;20036;-65
2022/12/09 08:52:24;;;;;;;23.58;16.08;;;5.00;99.90;;;;;;4190126;28;20032;-65
2022/12/09 08:54:25;;;;;;;26.15;16.45;;;5.10;99.90;;;;;;4190018;28;20053;-65
2022/12/09 08:56:26;;;;;;;25.27;16.30;;;5.00;99.90;;;;;;4187792;28;20040;-65
2022/12/09 08:58:26;;;;;;;24.23;15.82;;;5.10;99.90;;;;;;4188275;28;20040;-65
2022/12/09 09:00:27;;;;;;;24.85;15.82;;;5.10;99.90;;;;;;4188679;28;20036;-65
2022/12/09 09:02:28;;;;;;;25.92;16.27;;;5.10;99.90;;;;;;4190966;28;20036;-65
2022/12/09 09:04:30;;;;;;;26.98;16.13;;;5.10;99.90;;;;;;4191160;28;20041;-65
2022/12/09 09:06:31;;;;;;;;;;;5.10;99.90;;;;;;4189306;28;20037;-65
2022/12/09 09:08:31;;;;;;;22.80;14.68;;;5.10;99.90;;;;;;4190699;28;19912;-65
2022/12/09 09:10:32;;;;;;;27.63;16.95;;;5.10;99.90;;;;;;4190412;28;20036;-65
2022/12/09 09:12:33;;;;;;;27.05;16.63;;;5.10;99.90;;;;;;4190970;28;20040;-65
2022/12/09 09:14:33;;;;;;;24.70;16.08;;;5.10;99.90;;;;;;4189974;28;20411;-66
2022/12/09 09:16:36;;;;;;;26.50;16.27;;;5.10;99.90;;;;;;4188310;28;20036;-65
2022/12/09 09:18:38;;;;;;;27.38;16.15;;;5.10;99.90;;;;;;4189114;28;20032;-65
2022/12/09 09:20:46;;;;;;;29.58;17.63;;;5.10;99.90;;;;;;4188746;28;20032;-65
2022/12/09 09:22:47;;;;;;;27.40;17.58;;;5.10;99.90;;;;;;4189652;28;20469;-65
2022/12/09 09:24:47;;;;;;;30.50;17.27;;;5.10;99.90;;;;;;4189933;28;20048;-65
2022/12/09 09:26:49;;;;;;;31.42;18.40;;;5.20;99.90;;;;;;4189549;28;20033;-65
2022/12/09 09:28:51;;;;;;;28.08;17.13;;;5.20;99.90;;;;;;4190806;28;20048;-65
2022/12/09 09:31:02;;;;;;;28.73;17.17;;;5.20;99.90;;;;;;4190624;28;20032;-65
2022/12/09 09:33:03;;;;;;;27.65;16.77;;;5.20;99.90;;;;;;4190063;28;20098;-65
2022/12/09 09:35:04;;;;;;;27.92;16.83;;;5.20;99.90;;;;;;4188213;28;20037;-66
2022/12/09 09:37:04;;;;;;;30.65;18.08;;;5.20;99.90;;;;;;4189328;28;20094;-65
2022/12/09 09:39:05;;;;;;;32.20;18.13;;;5.20;99.90;;;;;;4190524;28;20028;-66
2022/12/09 09:41:27;;;;;;;29.50;16.83;;;5.20;99.90;;;;;;4189815;28;20041;-67
2022/12/09 09:43:35;;;;;;;26.40;16.55;;;5.30;99.90;;;;;;4167206;28;20032;-65
2022/12/09 09:45:35;;;;;;;24.50;15.63;;;5.20;99.90;;;;;;4187534;28;20471;-67
2022/12/09 09:47:42;;;;;;;30.05;16.88;;;5.30;99.90;;;;;;4188396;28;20089;-65
2022/12/09 09:50:02;;;;;;;30.30;17.50;;;5.30;99.90;;;;;;4187372;28;20072;-65
2022/12/09 09:52:07;;;;;;;29.05;16.77;;;5.30;99.90;;;;;;4187274;28;20514;-65
2022/12/09 09:54:11;;;;;;;27.83;16.23;;;5.30;99.90;;;;;;4184760;28;20549;-65
2022/12/09 09:56:27;;;;;;;29.08;17.50;;;5.30;99.90;;;;;;4189342;28;20048;-65
2022/12/09 09:59:14;;;;;;;26.77;16.38;;;5.30;99.90;;;;;;4190037;28;20182;-65
2022/12/09 10:01:17;;;;;;;27.17;16.73;;;5.30;99.90;;;;;;4125179;28;20047;-65
2022/12/09 10:03:39;;;;;;;25.55;15.73;;;5.40;99.90;;;;;;4165526;28;20048;-65
2022/12/09 10:05:51;;;;;;;30.95;16.98;;;5.40;99.90;;;;;;4184232;28;20041;-65
2022/12/09 10:07:57;;;;;;;29.33;16.95;;;5.30;99.90;;;;;;4189158;28;20391;-65
2022/12/09 10:10:14;;;;;;;25.50;15.63;;;5.30;99.90;;;;;;4190307;28;20490;-65
2022/12/09 10:12:27;;;;;;;29.00;15.88;;;5.30;99.90;;;;;;4188078;28;20040;-64
2022/12/09 10:14:50;;;;;;;25.73;14.18;;;5.30;99.90;;;;;;4189140;28;20124;-64
2022/12/09 10:17:10;;;;;;;23.55;12.50;;;5.30;99.90;;;;;;4176946;28;20064;-65
2022/12/09 10:19:22;;;;;;;19.00;11.40;;;5.20;99.90;;;;;;4188890;28;20040;-65
2022/12/09 10:21:23;;;;;;;18.75;10.00;;;5.10;99.90;;;;;;4189235;28;20036;-65
2022/12/09 10:23:28;;;;;;;15.13;8.68;;;5.10;99.90;;;;;;4187923;28;20112;-64
2022/12/09 10:25:32;;;;;;;16.75;7.95;;;5.00;99.90;;;;;;4187381;28;20032;-64
2022/12/09 10:27:41;;;;;;;13.80;7.70;;;5.00;99.90;;;;;;4187889;28;20097;-65
2022/12/09 10:30:01;;;;;;;12.60;7.40;;;5.00;99.90;;;;;;4189175;28;20033;-65
2022/12/09 10:32:02;;;;;;;14.63;8.80;;;4.90;99.90;;;;;;4188750;28;20035;-65
2022/12/09 10:34:03;;;;;;;14.52;9.07;;;4.90;99.90;;;;;;4187979;28;20036;-64